Time;durP1;ratioP1;P1;durP2;ratioP2;P2;SDS_P1;SDS_P2;PMS_P1;PMS_P2;Temp;Humidity;BMP_temperature;BMP_pressure;BME280_temperature;BME280_humidity;BME280_pressure;Samples;Min_cycle;Max_cycle;Signal;HPM_P1;HPM_P2
2021/06/01 00:00:12;;;;;;;4.75;3.85;;;;;;;8.23;100.00;96019.56;1030540;28;20030;-74
2021/06/01 00:00:43;;;;;;;3.88;3.33;;;;;;;8.20;100.00;96020.03;1034927;28;20022;-73
2021/06/01 00:01:13;;;;;;;5.35;3.47;;;;;;;8.17;100.00;96019.72;1039412;28;20017;-72
2021/06/01 00:01:45;;;;;;;5.13;3.40;;;;;;;8.15;100.00;96019.16;1042528;28;20017;-72
2021/06/01 00:02:15;;;;;;;4.63;3.75;;;;;;;8.11;100.00;96012.84;1034888;28;20058;-73
2021/06/01 00:02:48;;;;;;;5.40;3.80;;;;;;;8.05;100.00;96014.59;1030957;28;20254;-74
2021/06/01 00:03:18;;;;;;;5.60;3.50;;;;;;;8.03;100.00;96014.03;1032588;28;20030;-75
2021/06/01 00:03:49;;;;;;;4.00;3.40;;;;;;;8.03;100.00;96019.25;1034879;28;20251;-72
2021/06/01 00:04:19;;;;;;;5.00;3.70;;;;;;;7.92;100.00;96007.88;1027648;28;20018;-74
2021/06/01 00:04:50;;;;;;;5.40;3.72;;;;;;;7.90;100.00;96009.91;1030631;28;20045;-72
2021/06/01 00:05:20;;;;;;;6.97;3.97;;;;;;;7.90;100.00;96017.75;1030962;28;20586;-74
2021/06/01 00:05:51;;;;;;;5.57;3.63;;;;;;;7.84;100.00;96010.88;1030271;28;20033;-74
2021/06/01 00:06:21;;;;;;;6.05;3.70;;;;;;;7.86;100.00;96024.50;1030593;28;20033;-74
2021/06/01 00:06:51;;;;;;;4.95;3.13;;;;;;;7.79;100.00;96011.59;1029093;28;21104;-74
2021/06/01 00:07:25;;;;;;;7.45;4.00;;;;;;;7.84;100.00;96017.91;1030661;28;20026;-74
2021/06/01 00:07:55;;;;;;;6.57;3.40;;;;;;;7.78;100.00;96012.63;1035277;28;20045;-74
2021/06/01 00:08:26;;;;;;;5.45;3.40;;;;;;;7.76;100.00;96000.84;1037466;28;20260;-74
2021/06/01 00:08:56;;;;;;;4.03;3.33;;;;;;;7.86;100.00;96006.22;1034538;28;20018;-74
2021/06/01 00:09:27;;;;;;;3.30;3.00;;;;;;;7.88;100.00;96005.97;1031027;28;20018;-74
2021/06/01 00:09:57;;;;;;;5.32;3.47;;;;;;;7.98;100.00;96019.16;1030457;28;20026;-74
2021/06/01 00:10:28;;;;;;;4.18;3.35;;;;;;;7.96;100.00;96002.97;1026855;28;20714;-74
2021/06/01 00:10:58;;;;;;;4.45;3.60;;;;;;;8.03;100.00;96012.22;1034987;28;20048;-74
2021/06/01 00:11:29;;;;;;;3.92;3.10;;;;;;;8.05;100.00;96006.75;1038826;28;20471;-74
2021/06/01 00:11:59;;;;;;;7.72;3.53;;;;;;;8.13;100.00;96013.41;1031381;28;20061;-74
2021/06/01 00:12:30;;;;;;;3.67;3.22;;;;;;;8.13;100.00;96016.78;1031001;28;20428;-74
2021/06/01 00:13:00;;;;;;;5.00;3.17;;;;;;;8.10;100.00;96012.03;1034828;28;20010;-74
2021/06/01 00:13:31;;;;;;;8.13;3.50;;;;;;;8.11;100.00;96008.38;1030754;28;20065;-75
2021/06/01 00:14:01;;;;;;;3.75;3.30;;;;;;;8.11;100.00;96029.31;1029131;28;20031;-74
2021/06/01 00:14:32;;;;;;;4.40;3.63;;;;;;;8.09;100.00;96023.53;1032210;28;20026;-74
2021/06/01 00:15:04;;;;;;;3.42;3.13;;;;;;;8.07;100.00;96025.59;1030427;28;20122;-72
2021/06/01 00:15:35;;;;;;;4.05;3.20;;;;;;;8.03;100.00;96019.25;1034220;28;20109;-72
2021/06/01 00:16:05;;;;;;;3.58;3.25;;;;;;;8.03;100.00;96021.88;1031187;28;20277;-74
2021/06/01 00:16:36;;;;;;;6.45;3.35;;;;;;;8.03;100.00;96021.88;1034176;28;20022;-73
2021/06/01 00:17:06;;;;;;;4.50;3.42;;;;;;;8.04;100.00;96026.06;1030766;28;20554;-72
2021/06/01 00:17:37;;;;;;;5.15;3.40;;;;;;;8.06;100.00;96021.41;1038759;28;20022;-72
2021/06/01 00:18:07;;;;;;;7.43;3.17;;;;;;;8.04;100.00;96018.22;1026776;28;20015;-74
2021/06/01 00:18:38;;;;;;;4.18;3.30;;;;;;;7.99;100.00;96012.94;1030795;28;20037;-74
2021/06/01 00:19:09;;;;;;;4.22;3.38;;;;;;;8.05;100.00;96019.81;1034574;28;20034;-73
2021/06/01 00:19:39;;;;;;;7.40;3.20;;;;;;;8.00;100.00;96014.50;1034581;28;20024;-73
2021/06/01 00:20:10;;;;;;;6.13;3.20;;;;;;;8.03;100.00;96027.88;1030879;28;20089;-73
2021/06/01 00:20:41;;;;;;;3.97;3.38;;;;;;;7.96;100.00;96016.81;1027113;28;20497;-72
2021/06/01 00:21:11;;;;;;;3.80;3.40;;;;;;;7.99;100.00;96015.56;1026629;28;20365;-73
2021/06/01 00:21:42;;;;;;;4.65;3.75;;;;;;;8.04;100.00;96029.47;1026910;28;20041;-75
2021/06/01 00:22:12;;;;;;;5.68;3.30;;;;;;;8.03;100.00;96027.09;1030921;28;20034;-72
2021/06/01 00:22:43;;;;;;;3.38;3.05;;;;;;;8.02;100.00;96028.94;1038597;28;20017;-73
2021/06/01 00:23:13;;;;;;;6.07;3.53;;;;;;;8.01;100.00;96022.13;1034935;28;20026;-75
2021/06/01 00:23:44;;;;;;;5.88;3.53;;;;;;;7.97;100.00;96018.38;1036846;28;20164;-74
2021/06/01 00:24:15;;;;;;;4.05;3.35;;;;;;;7.93;100.00;96021.72;1030691;28;20088;-75
2021/06/01 00:24:45;;;;;;;4.05;3.25;;;;;;;7.90;100.00;96016.97;1027034;28;20019;-74
2021/06/01 00:25:16;;;;;;;4.05;3.63;;;;;;;7.89;100.00;96010.97;1030442;28;20038;-73
2021/06/01 00:25:46;;;;;;;4.63;3.38;;;;;;;7.87;100.00;96014.84;1030005;28;20421;-74
2021/06/01 00:26:17;;;;;;;4.65;4.03;;;;;;;7.93;100.00;96022.50;1026628;28;20409;-74
2021/06/01 00:26:47;;;;;;;3.78;3.35;;;;;;;7.87;100.00;96017.44;1034687;28;20022;-75
2021/06/01 00:27:17;;;;;;;3.88;3.20;;;;;;;7.95;100.00;96025.69;1033682;28;20030;-74
2021/06/01 00:27:48;;;;;;;3.58;3.17;;;;;;;7.90;100.00;96007.31;1034565;28;20061;-72
2021/06/01 00:28:18;;;;;;;3.53;3.22;;;;;;;7.86;100.00;96008.03;1034660;28;20052;-73
2021/06/01 00:28:50;;;;;;;4.68;3.60;;;;;;;7.94;100.00;96018.06;1030588;28;20030;-73
2021/06/01 00:29:21;;;;;;;5.30;3.28;;;;;;;7.88;100.00;96005.97;1031220;28;20096;-72
2021/06/01 00:29:51;;;;;;;6.15;3.25;;;;;;;7.88;100.00;96009.38;1034927;28;20347;-72
2021/06/01 00:30:22;;;;;;;3.92;3.20;;;;;;;7.91;100.00;96008.09;1034709;28;20419;-72
2021/06/01 00:30:52;;;;;;;4.82;3.60;;;;;;;7.85;100.00;96009.06;1039250;28;20470;-72
2021/06/01 00:31:23;;;;;;;4.40;3.70;;;;;;;7.84;100.00;96007.47;1034884;28;20058;-73
2021/06/01 00:31:53;;;;;;;4.78;3.40;;;;;;;7.88;100.00;96017.22;1030745;28;20508;-72
2021/06/01 00:32:24;;;;;;;5.65;3.47;;;;;;;7.87;100.00;96018.22;1034007;28;20021;-72
2021/06/01 00:32:54;;;;;;;5.20;3.80;;;;;;;7.82;100.00;96015.56;1035071;28;20427;-72
2021/06/01 00:33:25;;;;;;;6.25;3.90;;;;;;;7.82;100.00;96015.56;1034750;28;20057;-72
2021/06/01 00:33:55;;;;;;;4.00;3.60;;;;;;;7.85;100.00;96019.53;1034317;28;20492;-73
2021/06/01 00:34:26;;;;;;;5.10;3.45;;;;;;;7.83;100.00;96017.13;1026986;28;20065;-72
2021/06/01 00:34:56;;;;;;;6.20;3.38;;;;;;;7.79;100.00;96008.19;1034935;28;20025;-74
2021/06/01 00:35:27;;;;;;;4.60;3.28;;;;;;;7.71;100.00;96001.56;1030404;28;20023;-73
2021/06/01 00:35:57;;;;;;;4.13;3.50;;;;;;;7.79;100.00;96019.44;1030094;28;20057;-72
2021/06/01 00:36:27;;;;;;;5.05;3.53;;;;;;;7.76;100.00;96017.28;1026616;28;20015;-73
2021/06/01 00:36:58;;;;;;;4.55;3.47;;;;;;;7.75;100.00;96014.94;1030877;28;20015;-73
2021/06/01 00:37:28;;;;;;;4.35;3.83;;;;;;;7.66;100.00;95998.84;1034538;28;20510;-73
2021/06/01 00:37:59;;;;;;;4.05;3.65;;;;;;;7.73;100.00;96017.75;1026709;28;20421;-73
2021/06/01 00:38:29;;;;;;;3.92;3.58;;;;;;;7.73;100.00;96015.16;1026847;28;20027;-74
2021/06/01 00:39:00;;;;;;;8.93;3.75;;;;;;;7.67;100.00;96008.25;1031563;28;20484;-75
2021/06/01 00:39:30;;;;;;;5.45;3.83;;;;;;;7.70;100.00;96013.00;1026932;28;20519;-73
2021/06/01 00:40:01;;;;;;;5.18;3.45;;;;;;;7.63;100.00;96007.16;1033817;28;20502;-73
2021/06/01 00:40:34;;;;;;;4.70;3.45;;;;;;;7.65;100.00;96009.53;1030780;28;20038;-74
2021/06/01 00:41:04;;;;;;;5.13;3.72;;;;;;;7.65;100.00;96015.56;1031706;28;20054;-73
2021/06/01 00:41:35;;;;;;;4.05;3.65;;;;;;;7.64;100.00;96016.56;1035125;28;20272;-74
2021/06/01 00:42:05;;;;;;;5.57;3.95;;;;;;;7.60;100.00;96009.44;1030778;28;20330;-72
2021/06/01 00:42:36;;;;;;;4.30;3.40;;;;;;;7.60;100.00;96010.22;1026200;28;20033;-74
2021/06/01 00:43:06;;;;;;;3.92;3.45;;;;;;;7.53;100.00;96001.78;1022633;29;20548;-72
2021/06/01 00:43:43;;;;;;;4.72;3.38;;;;;;;7.54;100.00;96003.34;1027133;28;20038;-73
2021/06/01 00:44:13;;;;;;;5.25;3.80;;;;;;;7.61;100.00;96014.41;1032652;28;20277;-75
2021/06/01 00:44:44;;;;;;;5.38;3.85;;;;;;;7.60;100.00;96012.06;1034864;28;20034;-74
2021/06/01 00:45:18;;;;;;;5.20;3.72;;;;;;;7.61;100.00;96009.19;1037795;28;20049;-74
2021/06/01 00:45:49;;;;;;;4.72;3.58;;;;;;;7.62;100.00;96012.63;1031523;28;20065;-74
2021/06/01 00:46:20;;;;;;;5.28;3.42;;;;;;;7.62;100.00;96016.03;1035295;28;20385;-73
2021/06/01 00:46:53;;;;;;;7.07;3.47;;;;;;;7.55;100.00;96004.94;1039111;28;20049;-75
2021/06/01 00:47:23;;;;;;;5.22;3.50;;;;;;;7.51;100.00;95998.59;1034712;28;20056;-74
2021/06/01 00:47:54;;;;;;;4.07;3.67;;;;;;;7.60;100.00;96007.63;1034958;28;20281;-74
2021/06/01 00:48:24;;;;;;;4.57;3.67;;;;;;;7.63;100.00;96014.19;1034658;28;20037;-72
2021/06/01 00:48:55;;;;;;;3.85;3.50;;;;;;;7.57;100.00;96003.66;1026702;28;20058;-73
2021/06/01 00:49:25;;;;;;;7.20;3.78;;;;;;;7.62;100.00;96013.41;1029455;28;20026;-74
2021/06/01 00:49:56;;;;;;;4.38;3.88;;;;;;;7.55;100.00;96004.94;1030853;28;20026;-73
2021/06/01 00:50:27;;;;;;;4.43;3.45;;;;;;;7.53;100.00;96002.56;1030755;28;20027;-72
2021/06/01 00:50:58;;;;;;;4.82;4.10;;;;;;;7.61;100.00;96009.19;1027797;28;20625;-72
2021/06/01 00:51:30;;;;;;;6.15;3.60;;;;;;;7.52;100.00;96000.97;1028019;28;20274;-72
2021/06/01 00:52:01;;;;;;;4.75;3.60;;;;;;;7.60;100.00;96010.22;1031761;28;20037;-73
2021/06/01 00:52:31;;;;;;;10.70;3.63;;;;;;;7.60;100.00;96012.84;1031605;28;20785;-72
2021/06/01 00:53:02;;;;;;;7.10;3.65;;;;;;;7.44;100.00;95987.50;1039831;28;21806;-73
2021/06/01 00:53:33;;;;;;;4.07;3.67;;;;;;;7.60;100.00;96007.63;1035712;28;20030;-73
2021/06/01 00:54:04;;;;;;;4.25;3.60;;;;;;;7.59;100.00;96010.47;1035626;28;20268;-73
2021/06/01 00:54:34;;;;;;;4.57;3.22;;;;;;;7.54;100.00;96004.16;1032089;28;20026;-75
2021/06/01 00:55:06;;;;;;;4.25;3.78;;;;;;;7.42;100.00;95990.38;1035617;28;20026;-72
2021/06/01 00:55:36;;;;;;;5.38;3.80;;;;;;;7.55;100.00;96010.97;1035913;28;20107;-72
2021/06/01 00:56:07;;;;;;;4.72;3.50;;;;;;;7.56;100.00;96006.53;1034870;28;20287;-74
2021/06/01 00:56:37;;;;;;;4.13;3.40;;;;;;;7.56;100.00;96006.53;1040403;28;20025;-72
2021/06/01 00:57:08;;;;;;;6.32;3.90;;;;;;;7.52;100.00;96002.81;1043765;28;20032;-72
2021/06/01 00:57:38;;;;;;;4.93;3.97;;;;;;;7.54;100.00;96005.94;1039661;28;20030;-72
2021/06/01 00:58:09;;;;;;;5.03;4.05;;;;;;;7.54;100.00;96008.56;1038004;28;20025;-73
2021/06/01 00:58:39;;;;;;;7.82;3.78;;;;;;;7.53;100.00;96010.38;1031818;28;20034;-74
2021/06/01 00:59:10;;;;;;;5.03;3.67;;;;;;;7.54;100.00;96009.38;1035320;28;20029;-74
2021/06/01 00:59:40;;;;;;;4.68;3.58;;;;;;;7.53;100.00;96007.78;1031404;28;20014;-73
2021/06/01 01:01:12;;;;;;;5.72;3.97;;;;;;;7.48;100.00;95999.09;1035669;28;20064;-72
2021/06/01 01:01:35;;;;;;;5.75;3.97;;;;;;;7.51;100.00;96003.81;1033528;28;20257;-72
2021/06/01 01:02:06;;;;;;;4.53;3.72;;;;;;;7.45;100.00;95999.56;1031174;28;20050;-73
2021/06/01 01:02:37;;;;;;;4.25;3.85;;;;;;;7.46;100.00;96004.53;1035650;28;20022;-73
2021/06/01 01:03:08;;;;;;;4.20;3.80;;;;;;;7.39;100.00;95992.66;1039321;28;20014;-72
2021/06/01 01:03:39;;;;;;;5.50;3.92;;;;;;;7.39;100.00;96000.50;1032008;28;20030;-74
2021/06/01 01:04:10;;;;;;;5.63;3.78;;;;;;;7.45;100.00;96002.97;1035600;28;21076;-72
2021/06/01 01:04:40;;;;;;;4.43;3.88;;;;;;;7.46;100.00;96001.13;1035303;28;20014;-72
2021/06/01 01:05:12;;;;;;;6.93;3.80;;;;;;;7.42;100.00;96000.03;1031202;28;20504;-73
2021/06/01 01:05:45;;;;;;;4.70;3.75;;;;;;;7.43;100.00;96006.81;1027270;28;20017;-72
2021/06/01 01:06:30;;;;;;;7.03;3.40;;;;;;;7.41;100.00;96004.47;1035278;28;20273;-75
2021/06/01 01:07:22;;;;;;;4.22;3.70;;;;;;;7.40;100.00;96005.47;1039632;28;20306;-75
2021/06/01 01:09:08;;;;;;;4.20;3.53;;;;;;;7.38;100.00;96004.94;1042950;28;20346;-74
2021/06/01 01:09:39;;;;;;;5.13;4.15;;;;;;;7.37;100.00;96002.53;1036505;28;20268;-74
2021/06/01 01:10:11;;;;;;;4.68;3.92;;;;;;;7.37;100.00;96002.53;1031063;28;20692;-75
2021/06/01 01:10:41;;;;;;;6.13;3.78;;;;;;;7.30;100.00;95994.84;1031578;28;20463;-71
2021/06/01 01:11:29;;;;;;;4.45;3.70;;;;;;;7.33;100.00;96004.81;1031564;28;20261;-75
2021/06/01 01:12:07;;;;;;;28.90;6.40;;;;;;;7.32;100.00;95998.81;1037953;28;20113;-74
2021/06/01 01:12:44;;;;;;;5.00;3.63;;;;;;;7.29;100.00;95994.06;1038866;28;20295;-74
2021/06/01 01:13:14;;;;;;;5.97;4.03;;;;;;;7.28;100.00;95999.53;1029642;28;20703;-74
2021/06/01 01:14:22;;;;;;;4.68;3.60;;;;;;;7.27;100.00;96003.94;1031368;28;20258;-74
2021/06/01 01:14:55;;;;;;;4.78;3.63;;;;;;;7.26;100.00;95996.34;1026092;28;20528;-74
2021/06/01 01:15:26;;;;;;;4.35;3.70;;;;;;;7.25;100.00;96002.59;1024886;28;20306;-74
2021/06/01 01:15:56;;;;;;;4.95;3.75;;;;;;;7.22;100.00;96001.25;1026823;28;20250;-74
2021/06/01 01:16:28;;;;;;;4.88;3.90;;;;;;;7.18;100.00;95997.53;1034089;28;20017;-74
2021/06/01 01:17:01;;;;;;;11.13;4.30;;;;;;;7.23;100.00;96000.22;1035544;28;20526;-75
2021/06/01 01:17:52;;;;;;;9.18;4.40;;;;;;;7.21;100.00;96002.28;1027363;28;20302;-74
2021/06/01 01:18:22;;;;;;;4.72;3.67;;;;;;;7.10;100.00;95984.84;1026130;28;20270;-74
2021/06/01 01:19:12;;;;;;;4.75;3.88;;;;;;;7.17;100.00;96001.16;1034634;28;20758;-74
2021/06/01 01:20:04;;;;;;;7.47;4.05;;;;;;;7.09;100.00;95991.88;1039624;28;20021;-74
2021/06/01 01:20:49;;;;;;;6.82;3.90;;;;;;;7.08;100.00;95984.31;1037054;28;20278;-74
2021/06/01 01:21:49;;;;;;;5.25;3.70;;;;;;;7.12;100.00;95997.69;1031647;28;20269;-73
2021/06/01 01:22:20;;;;;;;8.63;4.05;;;;;;;7.05;100.00;95985.56;1027193;28;20333;-74
2021/06/01 01:22:53;;;;;;;4.03;3.30;;;;;;;7.13;100.00;95999.25;1032789;28;20987;-74
2021/06/01 01:23:23;;;;;;;4.65;3.70;;;;;;;6.93;100.00;95963.16;1035325;28;20565;-74
2021/06/01 01:24:13;;;;;;;6.13;4.05;;;;;;;7.12;100.00;96001.06;1040642;28;20271;-74
2021/06/01 01:24:50;;;;;;;7.25;4.00;;;;;;;7.13;100.00;95991.44;1035700;28;20097;-74
2021/06/01 01:25:27;;;;;;;6.05;3.50;;;;;;;7.13;100.00;95997.44;1035118;28;20104;-74
2021/06/01 01:26:03;;;;;;;8.75;3.78;;;;;;;7.10;100.00;95995.28;1030747;28;20272;-73
2021/06/01 01:27:07;;;;;;;5.60;3.78;;;;;;;7.08;100.00;96000.75;1023398;28;20322;-74
2021/06/01 01:28:03;;;;;;;7.72;3.83;;;;;;;7.09;100.00;95991.09;1029811;28;20320;-74
2021/06/01 01:28:44;;;;;;;4.78;3.90;;;;;;;7.08;100.00;95994.75;1043181;28;20299;-74
2021/06/01 01:29:17;;;;;;;6.20;3.85;;;;;;;6.99;100.00;95980.47;1043701;28;20274;-74
2021/06/01 01:29:48;;;;;;;5.65;3.90;;;;;;;7.05;100.00;95996.00;1039873;28;20048;-74
2021/06/01 01:30:19;;;;;;;5.82;4.15;;;;;;;6.99;100.00;95983.88;1033578;28;20273;-74
2021/06/01 01:30:54;;;;;;;8.35;4.40;;;;;;;7.02;100.00;95990.47;1035541;28;21147;-74
2021/06/01 01:32:11;;;;;;;5.15;3.90;;;;;;;7.00;100.00;95992.50;1031447;28;20105;-74
2021/06/01 01:32:50;;;;;;;4.20;3.40;;;;;;;6.99;100.00;95996.13;1029928;28;21146;-74
2021/06/01 01:33:37;;;;;;;6.80;4.22;;;;;;;6.93;100.00;95978.81;1041762;28;20271;-74
2021/06/01 01:34:08;;;;;;;6.93;4.07;;;;;;;6.96;100.00;95986.16;1042822;28;20267;-74
2021/06/01 01:34:38;;;;;;;4.10;3.70;;;;;;;6.94;100.00;95982.97;1031254;28;20261;-74
2021/06/01 01:35:09;;;;;;;4.22;3.55;;;;;;;6.97;100.00;95987.75;1023280;28;20042;-74
2021/06/01 01:35:42;;;;;;;4.40;4.00;;;;;;;6.90;100.00;95977.44;1028604;28;20041;-74
2021/06/01 01:36:12;;;;;;;4.55;4.13;;;;;;;6.93;100.00;95990.03;1027084;28;20050;-74
2021/06/01 01:36:43;;;;;;;5.05;4.38;;;;;;;6.90;100.00;95981.88;1031378;28;20866;-74
2021/06/01 01:37:14;;;;;;;4.50;4.10;;;;;;;6.92;100.00;95985.84;1031030;28;20113;-74
2021/06/01 01:37:44;;;;;;;5.57;3.80;;;;;;;6.90;100.00;95985.28;1027531;28;20037;-73
2021/06/01 01:38:15;;;;;;;4.43;4.03;;;;;;;6.89;100.00;95986.31;1031541;28;20026;-74
2021/06/01 01:38:45;;;;;;;5.35;4.20;;;;;;;6.87;100.00;95990.16;1032524;28;20037;-74
2021/06/01 01:39:16;;;;;;;4.95;4.15;;;;;;;6.85;100.00;95990.41;1031467;28;20034;-75
2021/06/01 01:39:49;;;;;;;5.32;3.85;;;;;;;6.83;100.00;95988.00;1027533;28;20177;-74
2021/06/01 01:40:23;;;;;;;4.60;4.20;;;;;;;6.81;100.00;95987.47;1023858;28;20038;-74
2021/06/01 01:40:54;;;;;;;6.65;4.55;;;;;;;6.78;100.00;95985.31;1028089;28;20301;-74
2021/06/01 01:41:24;;;;;;;6.32;4.43;;;;;;;6.78;100.00;95987.94;1028396;28;20278;-74
2021/06/01 01:41:55;;;;;;;5.70;4.65;;;;;;;6.74;100.00;95989.44;1028396;28;20814;-74
2021/06/01 01:42:27;;;;;;;7.45;4.47;;;;;;;6.75;100.00;95985.00;1038949;28;20061;-74
2021/06/01 01:43:03;;;;;;;7.40;4.55;;;;;;;6.82;100.00;95981.22;1038602;28;20040;-74
2021/06/01 01:43:34;;;;;;;6.85;4.38;;;;;;;6.81;100.00;95982.25;1032738;28;20269;-73
2021/06/01 01:44:08;;;;;;;8.48;4.22;;;;;;;6.82;100.00;95978.63;1032507;28;20267;-73
2021/06/01 01:44:48;;;;;;;4.60;3.83;;;;;;;6.84;100.00;95981.78;1035322;28;20268;-74
2021/06/01 01:45:26;;;;;;;6.35;4.53;;;;;;;6.79;100.00;95971.25;1031308;28;20709;-74
2021/06/01 01:46:06;;;;;;;6.78;4.25;;;;;;;6.84;100.00;95973.16;1033016;28;20056;-73
2021/06/01 01:49:04;;;;;;;4.05;3.53;;;;;;;6.90;100.00;95982.66;1034572;28;20323;-74
2021/06/01 01:49:35;;;;;;;6.13;3.97;;;;;;;6.91;100.00;95973.84;1029692;28;20669;-74
2021/06/01 01:50:07;;;;;;;9.45;4.30;;;;;;;6.80;100.00;95967.63;1027066;28;20269;-73
2021/06/01 01:50:37;;;;;;;5.40;4.30;;;;;;;6.88;100.00;95976.13;1032547;28;20109;-74
2021/06/01 01:51:16;;;;;;;5.78;4.40;;;;;;;6.79;100.00;95966.03;1032980;28;20265;-74
2021/06/01 01:51:48;;;;;;;6.22;4.22;;;;;;;6.88;100.00;95976.91;1031182;28;20665;-73
2021/06/01 01:52:19;;;;;;;8.55;4.45;;;;;;;6.87;100.00;95966.69;1039382;28;20350;-74
2021/06/01 01:52:49;;;;;;;6.22;4.28;;;;;;;6.90;100.00;95971.44;1030795;28;20324;-74
2021/06/01 01:53:19;;;;;;;4.32;3.85;;;;;;;6.89;100.00;95972.47;1031179;28;20053;-74
2021/06/01 01:53:54;;;;;;;7.43;4.32;;;;;;;6.83;100.00;95963.75;1031219;28;20064;-73
2021/06/01 01:54:30;;;;;;;5.38;4.70;;;;;;;6.88;100.00;95973.50;1033428;28;20079;-73
2021/06/01 01:55:01;;;;;;;7.65;5.10;;;;;;;6.86;100.00;95973.72;1036891;28;20813;-74
2021/06/01 01:55:31;;;;;;;8.82;4.93;;;;;;;6.90;100.00;95972.22;1034901;28;20265;-74
2021/06/01 01:56:01;;;;;;;5.53;4.47;;;;;;;6.91;100.00;95973.00;1030096;28;20916;-74
2021/06/01 01:56:36;;;;;;;7.10;4.55;;;;;;;6.92;100.00;95970.19;1039164;28;20025;-74
2021/06/01 01:57:11;;;;;;;5.47;4.70;;;;;;;6.91;100.00;95973.84;1026926;28;20543;-74
2021/06/01 01:57:45;;;;;;;4.80;3.88;;;;;;;6.89;100.00;95969.88;1029288;28;20667;-74
2021/06/01 01:58:17;;;;;;;7.95;4.80;;;;;;;6.83;100.00;95967.16;1034881;28;20339;-74
2021/06/01 01:58:49;;;;;;;7.03;4.40;;;;;;;6.82;100.00;95964.78;1031194;28;20785;-74
2021/06/01 01:59:21;;;;;;;5.43;4.45;;;;;;;6.85;100.00;95959.09;1030637;28;20789;-74
2021/06/01 01:59:52;;;;;;;7.80;4.10;;;;;;;6.89;100.00;95972.47;1027543;28;20270;-73
2021/06/01 02:00:22;;;;;;;6.05;4.53;;;;;;;6.91;100.00;95978.22;1027863;28;20266;-74
2021/06/01 02:00:53;;;;;;;5.88;4.22;;;;;;;6.91;100.00;95971.22;1030592;28;20544;-73
2021/06/01 02:01:23;;;;;;;7.07;4.35;;;;;;;6.92;100.00;95974.63;1030840;28;20022;-74
2021/06/01 02:01:54;;;;;;;5.68;4.72;;;;;;;6.84;100.00;95958.31;1039377;28;20025;-74
2021/06/01 02:02:24;;;;;;;9.38;4.53;;;;;;;6.90;100.00;95971.44;1033892;28;20036;-74
2021/06/01 02:02:55;;;;;;;4.85;4.35;;;;;;;6.71;100.00;95942.94;1025171;28;20414;-73
2021/06/01 02:03:25;;;;;;;5.10;4.10;;;;;;;6.87;100.00;95961.47;1026954;28;20065;-73
2021/06/01 02:03:56;;;;;;;5.45;4.07;;;;;;;6.91;100.00;95973.84;1031003;28;20033;-74
2021/06/01 02:04:28;;;;;;;5.10;4.60;;;;;;;6.81;100.00;95964.00;1032317;28;20701;-73
2021/06/01 02:04:59;;;;;;;4.65;4.15;;;;;;;6.89;100.00;95973.25;1029116;28;20050;-74
2021/06/01 02:05:30;;;;;;;6.00;4.38;;;;;;;6.89;100.00;95975.88;1039033;28;20260;-74
2021/06/01 02:06:00;;;;;;;8.45;4.57;;;;;;;6.87;100.00;95971.91;1030023;28;20102;-74
2021/06/01 02:06:31;;;;;;;6.97;4.80;;;;;;;6.85;100.00;95969.53;1034948;28;20021;-74
2021/06/01 02:07:02;;;;;;;7.93;4.30;;;;;;;6.81;100.00;95965.81;1031327;28;20604;-73
2021/06/01 02:07:33;;;;;;;5.05;4.10;;;;;;;6.84;100.00;95973.16;1034311;28;20371;-73
2021/06/01 02:08:03;;;;;;;5.97;4.35;;;;;;;6.84;100.00;95973.97;1034132;28;20916;-74
2021/06/01 02:08:34;;;;;;;8.82;4.80;;;;;;;6.83;100.00;95977.59;1030972;28;20025;-73
2021/06/01 02:09:06;;;;;;;5.65;4.53;;;;;;;6.77;100.00;95959.47;1026743;28;20392;-73
2021/06/01 02:09:36;;;;;;;5.95;4.40;;;;;;;6.84;100.00;95973.16;1030912;28;20058;-74
2021/06/01 02:10:08;;;;;;;7.00;4.18;;;;;;;6.76;100.00;95961.28;1035144;28;20272;-73
2021/06/01 02:10:38;;;;;;;6.50;4.95;;;;;;;6.82;100.00;95976.00;1026921;28;20114;-74
2021/06/01 02:11:10;;;;;;;7.50;4.28;;;;;;;6.80;100.00;95972.03;1034821;28;20261;-74
2021/06/01 02:11:40;;;;;;;6.63;5.00;;;;;;;6.75;100.00;95964.13;1026551;28;20050;-74
2021/06/01 02:12:11;;;;;;;6.10;4.78;;;;;;;6.75;100.00;95967.53;1034494;28;20304;-73
2021/06/01 02:12:41;;;;;;;7.03;4.93;;;;;;;6.81;100.00;95968.44;1035079;28;20054;-73
2021/06/01 02:13:11;;;;;;;5.75;4.82;;;;;;;6.79;100.00;95971.25;1034767;28;20534;-74
2021/06/01 02:13:50;;;;;;;5.30;4.50;;;;;;;6.82;100.00;95975.22;1031052;28;20030;-74
2021/06/01 02:14:21;;;;;;;7.20;4.85;;;;;;;6.79;100.00;95966.03;1034063;28;20022;-74
2021/06/01 02:14:55;;;;;;;5.90;4.93;;;;;;;6.79;100.00;95976.47;1026744;28;20282;-74
2021/06/01 02:15:25;;;;;;;6.05;4.80;;;;;;;6.79;100.00;95971.25;1028662;28;20018;-74
2021/06/01 02:15:56;;;;;;;5.05;4.55;;;;;;;6.78;100.00;95974.91;1028949;28;20254;-73
2021/06/01 02:16:27;;;;;;;10.00;4.85;;;;;;;6.70;100.00;95956.22;1038120;28;20032;-73
2021/06/01 02:16:58;;;;;;;7.13;4.50;;;;;;;6.71;100.00;95958.59;1039243;28;20030;-74
2021/06/01 02:17:29;;;;;;;6.50;4.90;;;;;;;6.78;100.00;95974.09;1034880;28;20434;-73
2021/06/01 02:17:59;;;;;;;7.15;5.03;;;;;;;6.75;100.00;95971.97;1036162;28;20265;-75
2021/06/01 02:18:29;;;;;;;6.47;5.10;;;;;;;6.72;100.00;95970.59;1034952;28;20038;-74
2021/06/01 02:19:00;;;;;;;5.95;4.95;;;;;;;6.63;100.00;95955.56;1035327;28;20030;-75
2021/06/01 02:19:31;;;;;;;7.00;5.13;;;;;;;6.71;100.00;95965.63;1034640;28;20109;-73
2021/06/01 02:20:03;;;;;;;8.60;5.38;;;;;;;6.69;100.00;95968.44;1035324;28;20253;-74
2021/06/01 02:20:33;;;;;;;7.32;4.53;;;;;;;6.61;100.00;95959.19;1034744;28;20030;-74
2021/06/01 02:21:06;;;;;;;5.10;4.50;;;;;;;6.67;100.00;95967.09;1026975;28;21015;-74
2021/06/01 02:22:04;;;;;;;7.80;4.97;;;;;;;6.64;100.00;95965.75;1030246;28;20455;-74
2021/06/01 02:24:23;;;;;;;6.30;4.57;;;;;;;6.55;100.00;95969.75;1034893;28;21001;-73
2021/06/01 02:25:01;;;;;;;5.93;4.38;;;;;;;6.54;100.00;95968.19;1039903;28;20329;-74
2021/06/01 02:25:36;;;;;;;7.55;4.55;;;;;;;6.52;100.00;95971.00;1036791;28;20264;-74
2021/06/01 02:26:15;;;;;;;6.20;4.53;;;;;;;6.54;100.00;95973.38;1030240;28;20282;-73
2021/06/01 02:26:51;;;;;;;5.05;4.55;;;;;;;6.51;100.00;95963.41;1034167;28;20280;-74
2021/06/01 02:27:25;;;;;;;5.03;4.50;;;;;;;6.51;100.00;95969.41;1031032;28;20365;-74
2021/06/01 02:28:13;;;;;;;5.38;4.88;;;;;;;6.45;100.00;95959.13;1033420;28;20696;-74
2021/06/01 02:28:47;;;;;;;4.82;4.32;;;;;;;6.45;100.00;95959.13;1038189;28;20708;-74
2021/06/01 02:29:52;;;;;;;5.15;4.65;;;;;;;6.50;100.00;95974.84;1031008;28;21135;-74
2021/06/01 02:30:27;;;;;;;6.38;5.13;;;;;;;6.48;100.00;95963.88;1027553;28;20293;-74
2021/06/01 02:31:05;;;;;;;6.13;4.80;;;;;;;6.43;100.00;95961.16;1030492;28;20356;-73
2021/06/01 02:31:39;;;;;;;5.78;5.15;;;;;;;6.43;100.00;95971.59;1033021;28;21141;-74
2021/06/01 02:32:10;;;;;;;7.68;4.88;;;;;;;6.46;100.00;95971.13;1038005;28;20831;-74
2021/06/01 02:32:47;;;;;;;5.20;4.70;;;;;;;6.40;100.00;95966.81;1034843;28;20322;-74
2021/06/01 02:33:19;;;;;;;4.80;4.30;;;;;;;6.45;100.00;95965.13;1035203;28;20276;-74
2021/06/01 02:33:50;;;;;;;10.40;4.35;;;;;;;6.41;100.00;95960.63;1030608;28;20873;-73
2021/06/01 02:34:20;;;;;;;6.57;4.53;;;;;;;6.48;100.00;95971.69;1035153;28;20272;-73
2021/06/01 02:34:51;;;;;;;5.00;4.18;;;;;;;6.46;100.00;95958.09;1030624;28;20093;-74
2021/06/01 02:35:37;;;;;;;6.07;4.78;;;;;;;6.51;100.00;95973.84;1036499;28;20044;-74
2021/06/01 02:36:07;;;;;;;5.20;4.70;;;;;;;6.45;100.00;95967.72;1038528;28;20499;-73
2021/06/01 02:36:38;;;;;;;6.07;5.18;;;;;;;6.47;100.00;95973.53;1039136;28;20260;-74
2021/06/01 02:37:08;;;;;;;5.50;4.90;;;;;;;6.49;100.00;95965.47;1034303;28;20396;-74
2021/06/01 02:37:40;;;;;;;6.53;5.28;;;;;;;6.47;100.00;95972.69;1030973;28;20026;-74
2021/06/01 02:38:11;;;;;;;6.32;4.85;;;;;;;6.50;100.00;95977.47;1030826;28;20037;-74
2021/06/01 02:38:41;;;;;;;7.50;4.90;;;;;;;6.45;100.00;95966.94;1027082;28;20274;-74
2021/06/01 02:39:12;;;;;;;6.43;4.60;;;;;;;6.50;100.00;95973.03;1038706;28;20045;-74
2021/06/01 02:39:42;;;;;;;5.88;4.60;;;;;;;6.48;100.00;95974.31;1030896;28;20611;-74
2021/06/01 02:40:14;;;;;;;7.63;4.63;;;;;;;6.46;100.00;95979.72;1031169;28;20058;-74
2021/06/01 02:40:45;;;;;;;6.45;5.20;;;;;;;6.37;100.00;95958.47;1026780;28;20821;-73
2021/06/01 02:41:15;;;;;;;6.20;5.00;;;;;;;6.48;100.00;95979.53;1027049;28;20293;-73
2021/06/01 02:41:47;;;;;;;5.90;4.80;;;;;;;6.42;100.00;95965.59;1027120;28;20030;-73